Airfield :
LOGIN :

Register | Disclaimer

   EN    FR    IT 

 










Legend :    VFR   Marginal VFR   IFR   Intensive IFR   Very Intensive IFR
Visi :
Ceiling :
>= 8 km
>= 3000ft
5 to 8 km
1000 to 3000 ft
1500m to 5 km
500 to 1000 ft
800 to 1500m
200 to 500 ft
< 800m
< 200 ft
Symbols :   Thunderstorms  Fog  Heavy snow  Heavy precipitations  Wind > 20 kt
SIGMETs :     Misc.  Thunderstorms  Icing  Turbulence  Mountain Waves  Volcanic Ashes






- Airport Elevation : 1247 ft
- IATA code : PRG


LKPR - Praha Ruzyne

CURRENT METAR :
  • 012100Z 14004KT CAVOK 02/M08 Q1015 NOSIG

EXPIRED METARs :
  • 012030Z 12005KT CAVOK 03/M08 Q1016 NOSIG
  • 012000Z 10004KT CAVOK 02/M08 Q1016 NOSIG
  • 011930Z 09005KT CAVOK 03/M08 Q1016 NOSIG
  • 011900Z 09004KT CAVOK 03/M08 Q1016 NOSIG
  • 011830Z 06002KT CAVOK 04/M08 Q1016 NOSIG

TAF TAF LKPR
Valid from the 01 at 18:00 until the 03 at 00:00 UTC


011700Z 0118/0300 22004KT CAVOK
TEMPO 0118/0212 VRB02KT
BECMG 0212/0214 24010KT



MET'MAP, your aeronautical weather chart ! - Copyright ORBIFLY December 2007 - Disclaimer

ORBIFLY MET'MAP TEAM :

Programming & Development : Alexandra Zaïnal
Concept & original design : Baudouin d'Aumeries
Assistance for programming : Marc-Olivier Méhu
Technical & hardware support : Manuel Goepfert

Contact : metmap@orbifly.com




SOURCES & CREDITS :

   NOAA